createdAt,value
2023-01-25T00:00:06.721Z,60.05
2023-01-25T00:03:14.776Z,60.62
2023-01-25T00:06:03.048Z,64.93
2023-01-25T00:08:52.131Z,65.26
2023-01-25T00:11:40.495Z,63.01
2023-01-25T00:14:28.783Z,61.66
2023-01-25T00:17:17.062Z,58.70
2023-01-25T00:20:05.859Z,57.87
2023-01-25T00:22:53.969Z,60.53
2023-01-25T00:25:41.982Z,63.02
2023-01-25T00:28:30.058Z,64.23
2023-01-25T00:31:33.400Z,64.12
2023-01-25T00:34:27.169Z,59.94
2023-01-25T00:37:18.329Z,57.91
2023-01-25T00:40:07.593Z,60.67
2023-01-25T00:42:55.913Z,63.39
2023-01-25T00:45:43.861Z,63.24
2023-01-25T00:48:31.796Z,61.46
2023-01-25T00:51:22.055Z,60.87
2023-01-25T00:54:10.134Z,60.39
2023-01-25T00:56:58.298Z,57.91
2023-01-25T00:59:47.637Z,57.80
2023-01-25T01:02:35.587Z,61.47
2023-01-25T01:05:23.520Z,64.62
2023-01-25T01:08:15.447Z,64.47
2023-01-25T01:11:07.023Z,62.46
2023-01-25T01:13:58.041Z,61.73
2023-01-25T01:16:46.454Z,59.42
2023-01-25T01:19:34.307Z,59.59
2023-01-25T01:22:22.067Z,62.15
2023-01-25T01:25:10.940Z,65.20
2023-01-25T01:27:58.580Z,64.64
2023-01-25T01:30:46.597Z,62.72
2023-01-25T01:33:36.129Z,60.19
2023-01-25T01:36:26.897Z,59.79
2023-01-25T01:39:15.112Z,57.98
2023-01-25T01:42:03.703Z,59.71
2023-01-25T01:44:54.422Z,62.51
2023-01-25T01:47:46.069Z,65.42
2023-01-25T01:50:34.983Z,63.71
2023-01-25T01:53:25.940Z,62.45
2023-01-25T01:56:22.073Z,59.24
2023-01-25T01:59:11.395Z,58.31
2023-01-25T02:01:59.506Z,61.77
2023-01-25T02:04:49.369Z,64.52
2023-01-25T02:07:39.006Z,63.81
2023-01-25T02:10:28.744Z,62.70
2023-01-25T02:13:20.050Z,60.26
2023-01-25T02:16:17.692Z,59.55
2023-01-25T02:19:08.655Z,58.05
2023-01-25T02:21:58.868Z,62.38
2023-01-25T02:24:57.004Z,64.03
2023-01-25T02:28:16.790Z,62.93
2023-01-25T02:31:05.428Z,62.12
2023-01-25T02:33:53.569Z,61.89
2023-01-25T02:36:42.108Z,60.49
2023-01-25T02:39:30.276Z,58.00
2023-01-25T02:42:18.081Z,58.07
2023-01-25T02:45:10.036Z,60.84
2023-01-25T02:47:58.025Z,62.88
2023-01-25T02:50:45.910Z,64.81
2023-01-25T02:53:34.118Z,62.08
2023-01-25T02:56:23.861Z,61.57
2023-01-25T02:59:13.498Z,59.47
2023-01-25T03:02:02.777Z,56.92
2023-01-25T03:04:51.510Z,58.46
2023-01-25T03:07:39.815Z,60.11
2023-01-25T03:10:28.329Z,64.39
2023-01-25T03:13:17.178Z,64.79
2023-01-25T03:16:09.877Z,62.77
2023-01-25T03:18:59.141Z,61.29
2023-01-25T03:21:47.293Z,60.78
2023-01-25T03:24:35.278Z,58.34
2023-01-25T03:27:24.306Z,58.05
2023-01-25T03:30:15.571Z,61.34
2023-01-25T03:33:03.714Z,62.69
2023-01-25T03:35:55.877Z,63.80
2023-01-25T03:38:43.627Z,63.00
2023-01-25T03:41:32.696Z,62.20
2023-01-25T03:44:20.864Z,58.73
2023-01-25T03:47:08.980Z,58.03
2023-01-25T03:49:57.221Z,61.24
2023-01-25T03:52:47.425Z,64.77
2023-01-25T03:55:36.225Z,65.44
2023-01-25T03:58:25.142Z,63.73
2023-01-25T04:01:13.838Z,60.28
2023-01-25T04:04:02.016Z,58.05
2023-01-25T04:06:50.044Z,60.60
2023-01-25T04:09:39.044Z,62.73
2023-01-25T04:12:27.753Z,63.67
2023-01-25T04:15:15.667Z,63.28
2023-01-25T04:18:03.835Z,61.56
2023-01-25T04:20:56.592Z,59.75
2023-01-25T04:23:44.812Z,57.60
2023-01-25T04:26:33.039Z,60.14
2023-01-25T04:29:28.697Z,62.45
2023-01-25T04:32:23.698Z,64.04
2023-01-25T04:35:12.373Z,63.94
2023-01-25T04:38:00.895Z,60.53
2023-01-25T04:40:57.656Z,58.45
2023-01-25T04:43:45.671Z,60.16
2023-01-25T04:46:35.165Z,63.76
2023-01-25T04:49:23.036Z,64.24
2023-01-25T04:52:10.830Z,62.23
2023-01-25T04:54:58.771Z,61.76
2023-01-25T04:57:49.875Z,60.18
2023-01-25T05:00:38.745Z,57.96
2023-01-25T05:03:27.687Z,60.72
2023-01-25T05:06:15.632Z,64.34
2023-01-25T05:09:03.690Z,64.66
2023-01-25T05:11:51.707Z,63.16
2023-01-25T05:14:56.288Z,61.83
2023-01-25T05:17:44.326Z,60.73
2023-01-25T05:20:32.136Z,59.72
2023-01-25T05:23:20.361Z,57.90
2023-01-25T05:26:27.349Z,58.99
2023-01-25T05:29:15.214Z,61.99
2023-01-25T05:32:23.140Z,64.97
2023-01-25T05:35:11.246Z,65.87
2023-01-25T05:38:00.396Z,64.26
2023-01-25T05:40:48.623Z,62.05
2023-01-25T05:43:36.552Z,60.35
2023-01-25T05:46:28.118Z,58.87
2023-01-25T05:49:18.242Z,58.11
2023-01-25T05:52:06.187Z,58.86
2023-01-25T05:54:54.418Z,63.28
2023-01-25T05:57:42.732Z,64.98
2023-01-25T06:00:30.568Z,64.88
2023-01-25T06:03:18.211Z,62.83
2023-01-25T06:06:07.051Z,60.18
2023-01-25T06:08:55.842Z,59.05
2023-01-25T06:11:47.369Z,58.00
2023-01-25T06:14:35.233Z,59.84
2023-01-25T06:17:24.066Z,62.91
2023-01-25T06:20:40.735Z,65.94
2023-01-25T06:23:29.321Z,65.22
2023-01-25T06:26:17.732Z,63.66
2023-01-25T06:29:07.047Z,62.80
2023-01-25T06:31:55.872Z,61.10
2023-01-25T06:34:43.863Z,60.20
2023-01-25T06:37:37.528Z,58.74
2023-01-25T06:40:26.749Z,57.87
2023-01-25T06:43:14.767Z,58.53
2023-01-25T06:46:06.470Z,59.82
2023-01-25T06:48:54.296Z,64.37
2023-01-25T06:51:42.172Z,66.24
2023-01-25T06:54:30.295Z,65.12
2023-01-25T06:57:18.284Z,63.58
2023-01-25T07:00:08.804Z,62.31
2023-01-25T07:02:56.988Z,60.65
2023-01-25T07:05:44.882Z,58.68
2023-01-25T07:08:35.000Z,59.59
2023-01-25T07:11:23.165Z,61.06
2023-01-25T07:14:11.207Z,65.11
2023-01-25T07:17:01.076Z,66.37
2023-01-25T07:19:49.980Z,64.95
2023-01-25T07:22:37.937Z,63.31
2023-01-25T07:25:26.075Z,62.46
2023-01-25T07:28:15.257Z,60.98
2023-01-25T07:31:07.614Z,58.04
2023-01-25T07:33:58.440Z,56.77
2023-01-25T07:36:47.148Z,59.65
2023-01-25T07:39:35.944Z,59.87
2023-01-25T07:42:25.357Z,61.30
2023-01-25T07:45:31.040Z,64.72
2023-01-25T07:48:20.661Z,67.28
2023-01-25T07:51:22.958Z,64.97
2023-01-25T07:54:12.530Z,62.77
2023-01-25T07:57:00.228Z,60.57
2023-01-25T07:59:48.286Z,57.40
2023-01-25T08:02:36.394Z,57.90
2023-01-25T08:05:25.515Z,60.37
2023-01-25T08:08:13.212Z,62.43
2023-01-25T08:11:26.692Z,65.55
2023-01-25T08:14:15.325Z,63.71
2023-01-25T08:17:03.161Z,62.65
2023-01-25T08:19:50.713Z,61.13
2023-01-25T08:22:38.754Z,58.27
2023-01-25T08:25:26.916Z,58.05
2023-01-25T08:28:15.024Z,60.37
2023-01-25T08:31:07.764Z,64.34
2023-01-25T08:33:56.617Z,64.93
2023-01-25T08:36:44.617Z,62.81
2023-01-25T08:39:32.414Z,61.68
2023-01-25T08:42:21.548Z,59.32
2023-01-25T08:45:11.134Z,58.38
2023-01-25T08:47:59.294Z,61.74
2023-01-25T08:50:47.559Z,63.60
2023-01-25T08:53:35.610Z,64.07
2023-01-25T08:56:23.314Z,61.12
2023-01-25T08:59:13.096Z,60.40
2023-01-25T09:02:01.338Z,59.08
2023-01-25T09:04:49.601Z,58.65
2023-01-25T09:07:38.963Z,61.97
2023-01-25T09:10:27.036Z,64.17
2023-01-25T09:13:14.698Z,64.04
2023-01-25T09:16:07.775Z,60.63
2023-01-25T09:19:06.102Z,58.44
2023-01-25T09:21:54.080Z,58.54
2023-01-25T09:24:42.197Z,60.04
2023-01-25T09:27:30.025Z,63.89
2023-01-25T09:30:19.583Z,64.73
2023-01-25T09:33:09.114Z,63.17
2023-01-25T09:35:57.196Z,60.48
2023-01-25T09:38:46.038Z,58.90
2023-01-25T09:41:42.846Z,59.62
2023-01-25T09:44:45.256Z,61.65
2023-01-25T09:47:46.308Z,65.02
2023-01-25T09:51:01.919Z,64.10
2023-01-25T09:53:53.652Z,61.61
2023-01-25T09:56:41.827Z,59.39
2023-01-25T09:59:31.386Z,57.75
2023-01-25T10:03:07.292Z,61.22
2023-01-25T10:06:01.240Z,63.06
2023-01-25T10:09:05.301Z,61.20
2023-01-25T10:11:53.193Z,59.31
2023-01-25T10:14:40.973Z,59.71
2023-01-25T10:17:41.338Z,61.27
2023-01-25T10:20:49.973Z,63.44
2023-01-25T10:24:04.646Z,62.73
2023-01-25T10:27:02.430Z,59.93
2023-01-25T10:29:56.551Z,57.29
2023-01-25T10:32:55.505Z,59.11
2023-01-25T10:35:47.943Z,62.44
2023-01-25T10:38:43.115Z,61.78
2023-01-25T10:41:41.260Z,60.59
2023-01-25T10:44:29.424Z,58.02
2023-01-25T10:47:50.977Z,56.01
2023-01-25T10:50:39.594Z,53.85
2023-01-25T10:53:37.437Z,52.89
2023-01-25T10:56:26.432Z,50.07
2023-01-25T10:59:29.200Z,50.83
2023-01-25T11:02:35.512Z,49.87
2023-01-25T11:05:41.910Z,48.97
2023-01-25T11:08:30.072Z,46.27
2023-01-25T11:11:37.411Z,44.21
2023-01-25T11:14:29.300Z,43.33
2023-01-25T11:17:31.611Z,41.53
2023-01-25T11:20:21.332Z,39.72
2023-01-25T11:23:27.732Z,39.02
2023-01-25T11:26:18.156Z,37.48
2023-01-25T11:29:11.576Z,37.83
2023-01-25T11:31:59.509Z,36.89
2023-01-25T11:34:49.697Z,35.43
2023-01-25T11:38:11.144Z,34.77
2023-01-25T11:41:28.488Z,35.79
2023-01-25T11:44:38.080Z,35.03
2023-01-25T11:47:42.611Z,35.34
2023-01-25T11:50:49.707Z,35.47
2023-01-25T11:54:08.476Z,34.27
2023-01-25T11:57:01.695Z,35.55
2023-01-25T12:00:14.346Z,36.45
2023-01-25T12:03:08.961Z,36.58
2023-01-25T12:06:23.679Z,36.37
2023-01-25T12:09:46.287Z,36.94
2023-01-25T12:12:58.085Z,37.40
2023-01-25T12:16:53.392Z,37.80
2023-01-25T12:20:35.514Z,37.98
2023-01-25T12:23:32.907Z,37.81
2023-01-25T12:26:42.561Z,37.79
2023-01-25T12:29:36.531Z,37.95
2023-01-25T12:32:41.405Z,38.20
2023-01-25T12:35:41.723Z,38.74
2023-01-25T12:39:12.750Z,38.98
2023-01-25T12:42:35.541Z,39.52
2023-01-25T12:45:38.216Z,39.85
2023-01-25T12:48:41.359Z,40.05
2023-01-25T12:51:42.326Z,40.32
2023-01-25T12:54:38.112Z,40.59
2023-01-25T12:57:44.581Z,41.20
2023-01-25T13:00:57.034Z,41.86
2023-01-25T13:04:03.780Z,42.88
2023-01-25T13:07:10.915Z,44.05
2023-01-25T13:10:12.547Z,45.81
2023-01-25T13:13:04.250Z,47.35
2023-01-25T13:15:53.661Z,48.57
2023-01-25T13:18:41.890Z,49.13
2023-01-25T13:21:47.202Z,50.10
2023-01-25T13:25:05.032Z,50.69
2023-01-25T13:27:53.266Z,51.78
2023-01-25T13:30:54.046Z,52.64
2023-01-25T13:33:43.547Z,53.29
2023-01-25T13:36:43.525Z,54.01
2023-01-25T13:39:31.786Z,54.30
2023-01-25T13:42:25.580Z,54.75
2023-01-25T13:45:20.564Z,55.56
2023-01-25T13:48:19.716Z,56.04
2023-01-25T13:51:14.332Z,57.13
2023-01-25T13:54:02.754Z,57.68
2023-01-25T13:57:12.799Z,57.91
2023-01-25T14:00:11.261Z,58.61
2023-01-25T14:02:59.159Z,59.14
2023-01-25T14:05:57.039Z,59.14
2023-01-25T14:08:47.602Z,59.47
2023-01-25T14:11:45.582Z,60.04
2023-01-25T14:14:35.765Z,60.09
2023-01-25T14:17:24.853Z,60.39
2023-01-25T14:20:21.998Z,60.70
2023-01-25T14:23:30.741Z,61.33
2023-01-25T14:26:28.415Z,62.77
2023-01-25T14:29:35.391Z,58.88
2023-01-25T14:32:26.648Z,54.81
2023-01-25T14:35:58.608Z,56.35
2023-01-25T14:38:47.910Z,57.19
2023-01-25T14:41:48.725Z,58.28
2023-01-25T14:44:47.850Z,59.14
2023-01-25T14:47:35.855Z,59.92
2023-01-25T14:50:39.355Z,59.96
2023-01-25T14:53:27.280Z,63.86
2023-01-25T14:56:22.392Z,67.92
2023-01-25T14:59:41.057Z,68.18
2023-01-25T15:02:44.903Z,65.80
2023-01-25T15:05:37.392Z,62.65
2023-01-25T15:08:29.187Z,58.08
2023-01-25T15:11:45.645Z,54.94
2023-01-25T15:14:33.882Z,54.90
2023-01-25T15:17:50.141Z,56.23
2023-01-25T15:20:42.016Z,56.83
2023-01-25T15:23:30.079Z,57.61
2023-01-25T15:26:25.357Z,58.67
2023-01-25T15:29:23.215Z,59.31
2023-01-25T15:32:21.359Z,60.40
2023-01-25T15:35:19.245Z,67.51
2023-01-25T15:38:12.771Z,70.25
2023-01-25T15:41:01.667Z,65.82
2023-01-25T15:43:50.373Z,63.39
2023-01-25T15:46:44.007Z,60.74
2023-01-25T15:49:39.708Z,56.64
2023-01-25T15:52:29.333Z,54.66
2023-01-25T15:55:17.511Z,55.53
2023-01-25T15:58:05.381Z,55.68
2023-01-25T16:00:53.697Z,56.99
2023-01-25T16:03:42.071Z,57.98
2023-01-25T16:06:40.750Z,59.69
2023-01-25T16:09:33.322Z,60.30
2023-01-25T16:12:22.408Z,61.67
2023-01-25T16:15:11.288Z,63.84
2023-01-25T16:17:59.321Z,68.08
2023-01-25T16:20:47.186Z,69.58
2023-01-25T16:23:35.328Z,67.68
2023-01-25T16:26:28.802Z,65.15
2023-01-25T16:29:16.556Z,62.44
2023-01-25T16:32:04.616Z,60.05
2023-01-25T16:34:52.412Z,56.24
2023-01-25T16:37:40.331Z,54.50
2023-01-25T16:40:36.637Z,55.14
2023-01-25T16:43:26.996Z,56.49
2023-01-25T16:46:23.907Z,57.85
2023-01-25T16:49:20.038Z,59.99
2023-01-25T16:52:08.292Z,60.69
2023-01-25T16:54:56.731Z,63.00
2023-01-25T16:57:48.694Z,66.23
2023-01-25T17:00:36.927Z,68.62
2023-01-25T17:03:25.095Z,67.09
2023-01-25T17:06:30.334Z,64.73
2023-01-25T17:09:25.544Z,62.62
2023-01-25T17:12:13.884Z,60.50
2023-01-25T17:15:01.903Z,57.39
2023-01-25T17:17:52.232Z,55.92
2023-01-25T17:20:40.307Z,56.69
2023-01-25T17:23:28.741Z,57.50
2023-01-25T17:26:20.541Z,59.58
2023-01-25T17:29:10.276Z,60.45
2023-01-25T17:31:59.930Z,61.06
2023-01-25T17:34:48.020Z,63.91
2023-01-25T17:37:35.996Z,69.17
2023-01-25T17:40:24.297Z,69.09
2023-01-25T17:43:12.007Z,66.76
2023-01-25T17:46:29.855Z,64.78
2023-01-25T17:49:18.584Z,64.19
2023-01-25T17:52:06.368Z,62.31
2023-01-25T17:54:54.500Z,60.39
2023-01-25T17:57:42.550Z,59.15
2023-01-25T18:00:31.491Z,55.84
2023-01-25T18:03:19.770Z,55.76
2023-01-25T18:06:11.376Z,57.40
2023-01-25T18:09:02.453Z,58.96
2023-01-25T18:11:50.479Z,60.91
2023-01-25T18:14:38.215Z,64.16
2023-01-25T18:17:26.196Z,65.52
2023-01-25T18:20:14.809Z,64.43
2023-01-25T18:23:02.617Z,64.44
2023-01-25T18:25:50.844Z,62.81
2023-01-25T18:28:38.910Z,57.30
2023-01-25T18:31:27.547Z,56.74
2023-01-25T18:34:15.884Z,58.97
2023-01-25T18:37:17.866Z,60.44
2023-01-25T18:40:07.681Z,62.77
2023-01-25T18:42:55.888Z,65.13
2023-01-25T18:45:44.244Z,62.00
2023-01-25T18:48:32.643Z,60.29
2023-01-25T18:51:22.633Z,57.98
2023-01-25T18:54:10.512Z,58.23
2023-01-25T18:56:58.108Z,60.42
2023-01-25T18:59:46.121Z,64.62
2023-01-25T19:02:33.878Z,65.19
2023-01-25T19:05:21.880Z,65.43
2023-01-25T19:08:09.654Z,63.05
2023-01-25T19:11:06.834Z,62.91
2023-01-25T19:13:54.774Z,60.97
2023-01-25T19:16:42.641Z,59.15
2023-01-25T19:19:33.711Z,56.44
2023-01-25T19:22:21.666Z,57.46
2023-01-25T19:25:10.173Z,58.34
2023-01-25T19:27:57.899Z,61.00
2023-01-25T19:30:45.962Z,63.01
2023-01-25T19:33:35.007Z,65.91
2023-01-25T19:36:23.342Z,65.22
2023-01-25T19:39:12.114Z,62.57
2023-01-25T19:42:00.195Z,62.99
2023-01-25T19:44:48.680Z,60.74
2023-01-25T19:47:36.989Z,57.41
2023-01-25T19:50:24.836Z,55.31
2023-01-25T19:53:12.406Z,56.58
2023-01-25T19:56:05.482Z,58.26
2023-01-25T19:58:56.982Z,60.72
2023-01-25T20:01:48.100Z,62.00
2023-01-25T20:04:36.435Z,65.86
2023-01-25T20:07:25.815Z,66.54
2023-01-25T20:10:13.688Z,64.64
2023-01-25T20:13:01.593Z,62.49
2023-01-25T20:15:49.645Z,62.31
2023-01-25T20:18:38.149Z,60.03
2023-01-25T20:21:27.822Z,56.69
2023-01-25T20:24:15.946Z,55.35
2023-01-25T20:27:04.664Z,56.80
2023-01-25T20:29:53.898Z,59.12
2023-01-25T20:32:41.799Z,63.84
2023-01-25T20:35:30.368Z,64.53
2023-01-25T20:38:18.468Z,64.65
2023-01-25T20:41:14.290Z,61.59
2023-01-25T20:44:11.315Z,56.68
2023-01-25T20:46:59.695Z,56.62
2023-01-25T20:49:47.843Z,59.54
2023-01-25T20:52:36.106Z,60.60
2023-01-25T20:55:24.054Z,63.65
2023-01-25T20:58:12.058Z,66.11
2023-01-25T21:01:00.182Z,64.77
2023-01-25T21:03:49.335Z,61.92
2023-01-25T21:06:36.945Z,60.90
2023-01-25T21:09:28.283Z,60.32
2023-01-25T21:12:15.946Z,55.98
2023-01-25T21:15:04.347Z,54.42
2023-01-25T21:17:52.829Z,56.58
2023-01-25T21:20:40.616Z,56.55
2023-01-25T21:23:29.844Z,59.83
2023-01-25T21:26:21.302Z,60.67
2023-01-25T21:29:09.577Z,63.89
2023-01-25T21:31:59.147Z,65.41
2023-01-25T21:34:47.139Z,65.47
2023-01-25T21:37:35.233Z,63.85
2023-01-25T21:40:22.988Z,62.30
2023-01-25T21:43:11.795Z,60.50
2023-01-25T21:46:14.699Z,56.92
2023-01-25T21:49:25.258Z,55.30
2023-01-25T21:52:13.192Z,57.32
2023-01-25T21:55:00.973Z,58.14
2023-01-25T21:57:49.115Z,60.40
2023-01-25T22:00:37.270Z,63.62
2023-01-25T22:03:25.030Z,66.20
2023-01-25T22:06:12.937Z,64.25
2023-01-25T22:09:01.539Z,63.06
2023-01-25T22:11:50.983Z,59.56
2023-01-25T22:14:38.848Z,56.31
2023-01-25T22:17:28.030Z,56.15
2023-01-25T22:20:16.368Z,60.51
2023-01-25T22:23:04.443Z,63.45
2023-01-25T22:26:13.984Z,63.78
2023-01-25T22:29:01.828Z,61.32
2023-01-25T22:31:49.794Z,57.57
2023-01-25T22:34:38.128Z,57.51
2023-01-25T22:37:25.801Z,59.84
2023-01-25T22:40:14.356Z,61.92
2023-01-25T22:43:02.255Z,64.74
2023-01-25T22:45:52.516Z,66.56
2023-01-25T22:48:40.649Z,65.18
2023-01-25T22:51:30.968Z,63.80
2023-01-25T22:54:19.029Z,61.98
2023-01-25T22:57:07.175Z,59.94
2023-01-25T22:59:55.050Z,56.51
2023-01-25T23:02:42.796Z,54.67
2023-01-25T23:05:31.006Z,56.30
2023-01-25T23:08:18.936Z,58.52
2023-01-25T23:11:13.760Z,62.92
2023-01-25T23:14:20.951Z,63.32
2023-01-25T23:17:27.193Z,62.80
2023-01-25T23:20:15.108Z,63.11
2023-01-25T23:23:03.359Z,58.08
2023-01-25T23:25:51.635Z,56.75
2023-01-25T23:28:39.604Z,57.77
2023-01-25T23:31:27.628Z,58.59
2023-01-25T23:34:15.524Z,59.51
2023-01-25T23:37:04.045Z,61.68
2023-01-25T23:39:52.287Z,64.66
2023-01-25T23:42:40.887Z,67.63
2023-01-25T23:45:28.897Z,66.54
2023-01-25T23:48:16.688Z,65.00
2023-01-25T23:51:04.760Z,62.04
2023-01-25T23:53:53.543Z,58.80
2023-01-25T23:56:41.431Z,55.30
2023-01-25T23:59:29.547Z,56.24
